sensor_id;sensor_type;location;lat;lon;timestamp;temperature;humidity
31769;DHT22;18342;52.132;21.048;2022-09-02T00:01:40;15.90;98.80
31769;DHT22;18342;52.132;21.048;2022-09-02T00:04:10;15.90;98.80
31769;DHT22;18342;52.132;21.048;2022-09-02T00:09:05;15.90;98.40
31769;DHT22;18342;52.132;21.048;2022-09-02T00:11:33;15.90;98.70
31769;DHT22;18342;52.132;21.048;2022-09-02T00:14:01;15.90;98.70
31769;DHT22;18342;52.132;21.048;2022-09-02T00:16:28;15.90;98.60
31769;DHT22;18342;52.132;21.048;2022-09-02T00:18:54;15.90;98.60
31769;DHT22;18342;52.132;21.048;2022-09-02T00:21:21;15.80;98.50
31769;DHT22;18342;52.132;21.048;2022-09-02T00:23:47;15.80;98.50
31769;DHT22;18342;52.132;21.048;2022-09-02T00:26:13;15.80;98.70
31769;DHT22;18342;52.132;21.048;2022-09-02T00:28:40;15.80;98.60
31769;DHT22;18342;52.132;21.048;2022-09-02T00:31:06;15.80;98.70
31769;DHT22;18342;52.132;21.048;2022-09-02T00:33:32;15.80;98.80
31769;DHT22;18342;52.132;21.048;2022-09-02T00:35:59;15.80;98.70
31769;DHT22;18342;52.132;21.048;2022-09-02T00:38:26;15.80;98.70
31769;DHT22;18342;52.132;21.048;2022-09-02T00:40:52;15.80;98.80
31769;DHT22;18342;52.132;21.048;2022-09-02T00:46:03;15.70;98.70
31769;DHT22;18342;52.132;21.048;2022-09-02T00:48:29;15.70;98.80
31769;DHT22;18342;52.132;21.048;2022-09-02T00:50:54;15.80;98.70
31769;DHT22;18342;52.132;21.048;2022-09-02T00:53:20;15.70;98.80
31769;DHT22;18342;52.132;21.048;2022-09-02T00:55:48;15.70;98.70
31769;DHT22;18342;52.132;21.048;2022-09-02T00:58:24;15.70;98.80
31769;DHT22;18342;52.132;21.048;2022-09-02T01:00:53;15.70;98.80
31769;DHT22;18342;52.132;21.048;2022-09-02T01:03:26;15.60;99.20
31769;DHT22;18342;52.132;21.048;2022-09-02T01:05:54;15.60;99.00
31769;DHT22;18342;52.132;21.048;2022-09-02T01:08:24;15.60;99.00
31769;DHT22;18342;52.132;21.048;2022-09-02T01:10:51;15.60;98.90
31769;DHT22;18342;52.132;21.048;2022-09-02T01:13:24;15.60;99.10
31769;DHT22;18342;52.132;21.048;2022-09-02T01:15:59;15.60;99.10
31769;DHT22;18342;52.132;21.048;2022-09-02T01:18:28;15.60;99.20
31769;DHT22;18342;52.132;21.048;2022-09-02T01:20:56;15.60;99.10
31769;DHT22;18342;52.132;21.048;2022-09-02T01:23:22;15.60;99.50
31769;DHT22;18342;52.132;21.048;2022-09-02T01:25:48;15.50;99.10
31769;DHT22;18342;52.132;21.048;2022-09-02T01:28:16;15.50;99.10
31769;DHT22;18342;52.132;21.048;2022-09-02T01:30:46;15.50;99.20
31769;DHT22;18342;52.132;21.048;2022-09-02T01:33:13;15.40;99.20
31769;DHT22;18342;52.132;21.048;2022-09-02T01:35:39;15.40;99.30
31769;DHT22;18342;52.132;21.048;2022-09-02T01:38:06;15.40;99.30
31769;DHT22;18342;52.132;21.048;2022-09-02T01:40:32;15.40;99.30
31769;DHT22;18342;52.132;21.048;2022-09-02T01:43:01;15.30;99.20
31769;DHT22;18342;52.132;21.048;2022-09-02T01:45:28;15.30;99.40
31769;DHT22;18342;52.132;21.048;2022-09-02T01:47:54;15.30;99.60
31769;DHT22;18342;52.132;21.048;2022-09-02T01:50:20;15.30;99.40
31769;DHT22;18342;52.132;21.048;2022-09-02T01:52:46;15.30;99.60
31769;DHT22;18342;52.132;21.048;2022-09-02T01:55:12;15.30;99.60
31769;DHT22;18342;52.132;21.048;2022-09-02T01:57:38;15.30;99.50
31769;DHT22;18342;52.132;21.048;2022-09-02T02:00:07;15.20;99.60
31769;DHT22;18342;52.132;21.048;2022-09-02T02:02:33;15.20;99.60
31769;DHT22;18342;52.132;21.048;2022-09-02T02:04:59;15.20;99.80
31769;DHT22;18342;52.132;21.048;2022-09-02T02:07:24;15.20;99.70
31769;DHT22;18342;52.132;21.048;2022-09-02T02:09:50;15.10;99.70
31769;DHT22;18342;52.132;21.048;2022-09-02T02:12:17;15.10;99.60
31769;DHT22;18342;52.132;21.048;2022-09-02T02:14:43;15.10;99.80
31769;DHT22;18342;52.132;21.048;2022-09-02T02:17:09;15.10;99.80
31769;DHT22;18342;52.132;21.048;2022-09-02T02:19:35;15.10;99.90
31769;DHT22;18342;52.132;21.048;2022-09-02T02:22:01;15.00;99.90
31769;DHT22;18342;52.132;21.048;2022-09-02T02:24:28;15.00;99.90
31769;DHT22;18342;52.132;21.048;2022-09-02T02:26:54;15.00;99.90
31769;DHT22;18342;52.132;21.048;2022-09-02T02:29:20;15.00;99.90
31769;DHT22;18342;52.132;21.048;2022-09-02T02:31:46;15.00;99.90
31769;DHT22;18342;52.132;21.048;2022-09-02T02:34:11;15.10;99.90
31769;DHT22;18342;52.132;21.048;2022-09-02T02:36:38;15.00;99.90
31769;DHT22;18342;52.132;21.048;2022-09-02T02:39:07;15.00;99.90
31769;DHT22;18342;52.132;21.048;2022-09-02T02:41:34;15.00;99.90
31769;DHT22;18342;52.132;21.048;2022-09-02T02:44:00;15.00;99.90
31769;DHT22;18342;52.132;21.048;2022-09-02T02:46:26;14.90;99.90
31769;DHT22;18342;52.132;21.048;2022-09-02T02:48:52;14.90;99.90
31769;DHT22;18342;52.132;21.048;2022-09-02T02:51:17;14.90;99.90
31769;DHT22;18342;52.132;21.048;2022-09-02T02:53:43;14.90;99.90
31769;DHT22;18342;52.132;21.048;2022-09-02T02:56:09;14.90;99.90
31769;DHT22;18342;52.132;21.048;2022-09-02T02:58:35;14.90;99.90
31769;DHT22;18342;52.132;21.048;2022-09-02T03:01:01;14.90;99.90
31769;DHT22;18342;52.132;21.048;2022-09-02T03:03:27;14.90;99.90
31769;DHT22;18342;52.132;21.048;2022-09-02T03:05:53;14.80;99.90
31769;DHT22;18342;52.132;21.048;2022-09-02T03:08:20;14.80;99.90
31769;DHT22;18342;52.132;21.048;2022-09-02T03:10:47;14.90;99.90
31769;DHT22;18342;52.132;21.048;2022-09-02T03:13:13;14.80;99.90
31769;DHT22;18342;52.132;21.048;2022-09-02T03:15:40;14.80;99.90
31769;DHT22;18342;52.132;21.048;2022-09-02T03:18:06;14.80;99.90
31769;DHT22;18342;52.132;21.048;2022-09-02T03:20:32;14.80;99.90
31769;DHT22;18342;52.132;21.048;2022-09-02T03:22:59;14.80;99.90
31769;DHT22;18342;52.132;21.048;2022-09-02T03:25:28;14.70;99.90
31769;DHT22;18342;52.132;21.048;2022-09-02T03:27:54;14.70;99.90
31769;DHT22;18342;52.132;21.048;2022-09-02T03:30:23;14.70;99.90
31769;DHT22;18342;52.132;21.048;2022-09-02T03:32:50;14.70;99.90
31769;DHT22;18342;52.132;21.048;2022-09-02T03:35:18;14.70;99.90
31769;DHT22;18342;52.132;21.048;2022-09-02T03:37:45;14.70;99.90
31769;DHT22;18342;52.132;21.048;2022-09-02T03:40:14;14.70;99.90
31769;DHT22;18342;52.132;21.048;2022-09-02T03:42:40;14.70;99.90
31769;DHT22;18342;52.132;21.048;2022-09-02T03:45:09;14.60;99.90
31769;DHT22;18342;52.132;21.048;2022-09-02T03:47:36;14.60;99.90
31769;DHT22;18342;52.132;21.048;2022-09-02T03:50:05;14.60;99.90
31769;DHT22;18342;52.132;21.048;2022-09-02T03:52:31;14.60;99.90
31769;DHT22;18342;52.132;21.048;2022-09-02T03:54:57;14.60;99.90
31769;DHT22;18342;52.132;21.048;2022-09-02T03:57:23;14.60;99.90
31769;DHT22;18342;52.132;21.048;2022-09-02T03:59:51;14.50;99.90
31769;DHT22;18342;52.132;21.048;2022-09-02T04:02:17;14.50;99.90
31769;DHT22;18342;52.132;21.048;2022-09-02T04:04:43;14.50;99.90
31769;DHT22;18342;52.132;21.048;2022-09-02T04:07:08;14.50;99.90
31769;DHT22;18342;52.132;21.048;2022-09-02T04:09:34;14.50;99.90
31769;DHT22;18342;52.132;21.048;2022-09-02T04:12:00;14.50;99.90
31769;DHT22;18342;52.132;21.048;2022-09-02T04:14:26;14.50;99.90
31769;DHT22;18342;52.132;21.048;2022-09-02T04:16:51;14.50;99.90
31769;DHT22;18342;52.132;21.048;2022-09-02T04:19:17;14.50;99.90
31769;DHT22;18342;52.132;21.048;2022-09-02T04:21:43;14.50;99.90
31769;DHT22;18342;52.132;21.048;2022-09-02T04:24:09;14.50;99.90
31769;DHT22;18342;52.132;21.048;2022-09-02T04:26:35;14.40;99.90
31769;DHT22;18342;52.132;21.048;2022-09-02T04:29:03;14.40;99.90
31769;DHT22;18342;52.132;21.048;2022-09-02T04:31:29;14.40;99.90
31769;DHT22;18342;52.132;21.048;2022-09-02T04:33:55;14.30;99.90
31769;DHT22;18342;52.132;21.048;2022-09-02T04:36:22;14.30;99.90
31769;DHT22;18342;52.132;21.048;2022-09-02T04:38:48;14.30;99.90
31769;DHT22;18342;52.132;21.048;2022-09-02T04:41:16;14.30;99.90
31769;DHT22;18342;52.132;21.048;2022-09-02T04:43:42;14.30;99.90
31769;DHT22;18342;52.132;21.048;2022-09-02T04:46:11;14.30;99.90
31769;DHT22;18342;52.132;21.048;2022-09-02T04:48:38;14.40;99.90
31769;DHT22;18342;52.132;21.048;2022-09-02T04:51:16;14.40;99.90
31769;DHT22;18342;52.132;21.048;2022-09-02T04:53:43;14.40;99.90
31769;DHT22;18342;52.132;21.048;2022-09-02T04:56:11;14.40;99.90
31769;DHT22;18342;52.132;21.048;2022-09-02T04:58:37;14.40;99.90
31769;DHT22;18342;52.132;21.048;2022-09-02T05:01:08;14.40;99.90
31769;DHT22;18342;52.132;21.048;2022-09-02T05:03:35;14.50;99.90
31769;DHT22;18342;52.132;21.048;2022-09-02T05:06:03;14.60;99.90
31769;DHT22;18342;52.132;21.048;2022-09-02T05:08:29;14.50;99.90
31769;DHT22;18342;52.132;21.048;2022-09-02T05:10:55;14.50;99.90
31769;DHT22;18342;52.132;21.048;2022-09-02T05:13:21;14.50;99.90
31769;DHT22;18342;52.132;21.048;2022-09-02T05:15:48;14.50;99.90
31769;DHT22;18342;52.132;21.048;2022-09-02T05:18:14;14.50;99.90
31769;DHT22;18342;52.132;21.048;2022-09-02T05:20:40;14.50;99.90
31769;DHT22;18342;52.132;21.048;2022-09-02T05:23:11;14.60;99.90
31769;DHT22;18342;52.132;21.048;2022-09-02T05:25:38;14.50;99.90
31769;DHT22;18342;52.132;21.048;2022-09-02T05:28:05;14.60;99.90
31769;DHT22;18342;52.132;21.048;2022-09-02T05:30:34;14.60;99.90
31769;DHT22;18342;52.132;21.048;2022-09-02T05:33:00;14.60;99.90
31769;DHT22;18342;52.132;21.048;2022-09-02T05:35:26;14.70;99.90
31769;DHT22;18342;52.132;21.048;2022-09-02T05:37:51;14.70;99.90
31769;DHT22;18342;52.132;21.048;2022-09-02T05:40:17;14.80;99.90
31769;DHT22;18342;52.132;21.048;2022-09-02T05:42:43;14.90;99.90
31769;DHT22;18342;52.132;21.048;2022-09-02T05:45:10;14.90;99.90
31769;DHT22;18342;52.132;21.048;2022-09-02T05:47:36;15.00;99.90
31769;DHT22;18342;52.132;21.048;2022-09-02T05:50:02;15.20;99.90
31769;DHT22;18342;52.132;21.048;2022-09-02T05:52:28;15.30;99.90
31769;DHT22;18342;52.132;21.048;2022-09-02T05:54:55;15.40;99.90
31769;DHT22;18342;52.132;21.048;2022-09-02T05:57:21;15.50;99.90
31769;DHT22;18342;52.132;21.048;2022-09-02T05:59:47;15.60;99.90
31769;DHT22;18342;52.132;21.048;2022-09-02T06:02:16;15.70;99.90
31769;DHT22;18342;52.132;21.048;2022-09-02T06:04:45;15.90;99.90
31769;DHT22;18342;52.132;21.048;2022-09-02T06:07:12;16.00;99.90
31769;DHT22;18342;52.132;21.048;2022-09-02T06:09:38;16.10;99.90
31769;DHT22;18342;52.132;21.048;2022-09-02T06:12:05;16.20;99.90
31769;DHT22;18342;52.132;21.048;2022-09-02T06:14:31;16.30;99.90
31769;DHT22;18342;52.132;21.048;2022-09-02T06:16:58;16.40;99.90
31769;DHT22;18342;52.132;21.048;2022-09-02T06:19:25;16.40;99.90
31769;DHT22;18342;52.132;21.048;2022-09-02T06:21:52;16.30;99.90
31769;DHT22;18342;52.132;21.048;2022-09-02T06:24:19;16.30;99.90
31769;DHT22;18342;52.132;21.048;2022-09-02T06:26:44;16.40;99.90
31769;DHT22;18342;52.132;21.048;2022-09-02T06:29:10;16.50;99.90
31769;DHT22;18342;52.132;21.048;2022-09-02T06:31:40;16.50;99.90
31769;DHT22;18342;52.132;21.048;2022-09-02T06:34:06;16.60;99.90
31769;DHT22;18342;52.132;21.048;2022-09-02T06:36:31;16.50;99.90
31769;DHT22;18342;52.132;21.048;2022-09-02T06:38:58;16.60;99.90
31769;DHT22;18342;52.132;21.048;2022-09-02T06:41:27;16.60;99.90
31769;DHT22;18342;52.132;21.048;2022-09-02T06:43:58;16.70;99.90
31769;DHT22;18342;52.132;21.048;2022-09-02T06:46:30;16.80;99.90
31769;DHT22;18342;52.132;21.048;2022-09-02T06:48:57;16.80;99.90
31769;DHT22;18342;52.132;21.048;2022-09-02T06:51:26;16.80;99.90
31769;DHT22;18342;52.132;21.048;2022-09-02T06:53:52;16.90;99.90
31769;DHT22;18342;52.132;21.048;2022-09-02T06:56:18;17.00;99.90
31769;DHT22;18342;52.132;21.048;2022-09-02T06:58:44;17.00;99.90
31769;DHT22;18342;52.132;21.048;2022-09-02T07:01:26;17.10;99.90
31769;DHT22;18342;52.132;21.048;2022-09-02T07:03:53;17.10;99.90
31769;DHT22;18342;52.132;21.048;2022-09-02T07:06:41;17.10;99.90
31769;DHT22;18342;52.132;21.048;2022-09-02T07:09:09;17.20;99.80
31769;DHT22;18342;52.132;21.048;2022-09-02T07:11:38;17.20;99.90
31769;DHT22;18342;52.132;21.048;2022-09-02T07:14:05;17.20;99.90
31769;DHT22;18342;52.132;21.048;2022-09-02T07:16:33;17.30;99.90
31769;DHT22;18342;52.132;21.048;2022-09-02T07:18:59;17.40;99.90
31769;DHT22;18342;52.132;21.048;2022-09-02T07:21:29;17.40;99.90
31769;DHT22;18342;52.132;21.048;2022-09-02T07:23:59;17.40;99.60
31769;DHT22;18342;52.132;21.048;2022-09-02T07:26:26;17.50;99.90
31769;DHT22;18342;52.132;21.048;2022-09-02T07:28:52;17.50;99.90
31769;DHT22;18342;52.132;21.048;2022-09-02T07:31:18;17.40;99.80
31769;DHT22;18342;52.132;21.048;2022-09-02T07:33:44;17.40;99.70
31769;DHT22;18342;52.132;21.048;2022-09-02T07:36:11;17.40;99.40
31769;DHT22;18342;52.132;21.048;2022-09-02T07:38:38;17.40;99.50
31769;DHT22;18342;52.132;21.048;2022-09-02T07:41:05;17.40;98.90
31769;DHT22;18342;52.132;21.048;2022-09-02T07:43:32;17.50;98.90
31769;DHT22;18342;52.132;21.048;2022-09-02T07:45:59;17.50;99.10
31769;DHT22;18342;52.132;21.048;2022-09-02T07:48:26;17.60;99.20
31769;DHT22;18342;52.132;21.048;2022-09-02T07:50:52;17.60;99.00
31769;DHT22;18342;52.132;21.048;2022-09-02T07:53:19;17.50;98.50
31769;DHT22;18342;52.132;21.048;2022-09-02T07:55:45;17.70;98.60
31769;DHT22;18342;52.132;21.048;2022-09-02T07:58:13;17.70;98.30
31769;DHT22;18342;52.132;21.048;2022-09-02T08:00:39;17.80;97.40
31769;DHT22;18342;52.132;21.048;2022-09-02T08:03:06;17.80;97.60
31769;DHT22;18342;52.132;21.048;2022-09-02T08:05:32;17.90;97.70
31769;DHT22;18342;52.132;21.048;2022-09-02T08:07:59;18.10;97.80
31769;DHT22;18342;52.132;21.048;2022-09-02T08:10:26;18.20;97.40
31769;DHT22;18342;52.132;21.048;2022-09-02T08:12:54;18.30;97.30
31769;DHT22;18342;52.132;21.048;2022-09-02T08:15:22;18.40;97.10
31769;DHT22;18342;52.132;21.048;2022-09-02T08:17:48;18.40;96.40
31769;DHT22;18342;52.132;21.048;2022-09-02T08:20:15;18.60;96.60
31769;DHT22;18342;52.132;21.048;2022-09-02T08:22:42;18.70;96.70
31769;DHT22;18342;52.132;21.048;2022-09-02T08:25:09;18.90;96.70
31769;DHT22;18342;52.132;21.048;2022-09-02T08:27:35;19.00;96.40
31769;DHT22;18342;52.132;21.048;2022-09-02T08:30:02;19.20;95.90
31769;DHT22;18342;52.132;21.048;2022-09-02T08:32:28;19.40;95.80
31769;DHT22;18342;52.132;21.048;2022-09-02T08:34:55;19.60;94.60
31769;DHT22;18342;52.132;21.048;2022-09-02T08:37:21;19.70;94.90
31769;DHT22;18342;52.132;21.048;2022-09-02T08:39:47;19.90;94.40
31769;DHT22;18342;52.132;21.048;2022-09-02T08:44:45;20.30;94.00
31769;DHT22;18342;52.132;21.048;2022-09-02T08:47:15;20.20;93.80
31769;DHT22;18342;52.132;21.048;2022-09-02T08:49:46;20.40;93.70
31769;DHT22;18342;52.132;21.048;2022-09-02T08:52:21;20.50;93.60
31769;DHT22;18342;52.132;21.048;2022-09-02T08:54:55;20.60;93.10
31769;DHT22;18342;52.132;21.048;2022-09-02T08:57:22;20.70;92.60
31769;DHT22;18342;52.132;21.048;2022-09-02T08:59:49;20.80;92.80
31769;DHT22;18342;52.132;21.048;2022-09-02T09:05:32;21.00;92.20
31769;DHT22;18342;52.132;21.048;2022-09-02T09:10:58;21.20;91.30
31769;DHT22;18342;52.132;21.048;2022-09-02T09:16:25;21.40;90.30
31769;DHT22;18342;52.132;21.048;2022-09-02T09:18:59;21.50;91.00
31769;DHT22;18342;52.132;21.048;2022-09-02T09:21:26;21.60;90.70
31769;DHT22;18342;52.132;21.048;2022-09-02T09:23:57;21.70;89.30
31769;DHT22;18342;52.132;21.048;2022-09-02T09:26:27;21.70;90.10
31769;DHT22;18342;52.132;21.048;2022-09-02T09:28:55;21.90;87.10
31769;DHT22;18342;52.132;21.048;2022-09-02T09:31:23;22.00;87.70
31769;DHT22;18342;52.132;21.048;2022-09-02T09:34:10;22.00;86.80
31769;DHT22;18342;52.132;21.048;2022-09-02T09:39:28;22.10;84.10
31769;DHT22;18342;52.132;21.048;2022-09-02T09:42:14;22.10;84.40
31769;DHT22;18342;52.132;21.048;2022-09-02T09:44:44;22.20;85.30
31769;DHT22;18342;52.132;21.048;2022-09-02T09:47:22;22.20;85.20
31769;DHT22;18342;52.132;21.048;2022-09-02T09:52:28;22.30;82.40
31769;DHT22;18342;52.132;21.048;2022-09-02T09:55:11;22.30;82.00
31769;DHT22;18342;52.132;21.048;2022-09-02T09:57:38;22.50;85.70
31769;DHT22;18342;52.132;21.048;2022-09-02T10:00:31;22.60;83.00
31769;DHT22;18342;52.132;21.048;2022-09-02T10:03:04;22.60;82.70
31769;DHT22;18342;52.132;21.048;2022-09-02T10:05:38;22.70;82.20
31769;DHT22;18342;52.132;21.048;2022-09-02T10:11:05;22.60;79.40
31769;DHT22;18342;52.132;21.048;2022-09-02T10:13:35;22.70;81.10
31769;DHT22;18342;52.132;21.048;2022-09-02T10:16:06;22.80;81.70
31769;DHT22;18342;52.132;21.048;2022-09-02T10:18:42;22.80;81.00
31769;DHT22;18342;52.132;21.048;2022-09-02T10:26:48;23.10;79.50
31769;DHT22;18342;52.132;21.048;2022-09-02T10:32:26;23.10;77.80
31769;DHT22;18342;52.132;21.048;2022-09-02T10:35:24;23.10;77.70
31769;DHT22;18342;52.132;21.048;2022-09-02T10:38:11;23.20;77.20
31769;DHT22;18342;52.132;21.048;2022-09-02T10:40:44;23.20;77.40
31769;DHT22;18342;52.132;21.048;2022-09-02T10:45:59;23.40;80.10
31769;DHT22;18342;52.132;21.048;2022-09-02T10:51:14;23.40;77.00
31769;DHT22;18342;52.132;21.048;2022-09-02T10:56:20;23.40;73.50
31769;DHT22;18342;52.132;21.048;2022-09-02T10:58:58;23.40;74.80
31769;DHT22;18342;52.132;21.048;2022-09-02T11:01:30;23.30;74.70
31769;DHT22;18342;52.132;21.048;2022-09-02T11:06:40;23.40;72.50
31769;DHT22;18342;52.132;21.048;2022-09-02T11:09:36;23.30;72.50
31769;DHT22;18342;52.132;21.048;2022-09-02T11:14:48;23.30;71.40
31769;DHT22;18342;52.132;21.048;2022-09-02T11:17:21;23.30;71.80
31769;DHT22;18342;52.132;21.048;2022-09-02T11:22:56;23.20;72.30
31769;DHT22;18342;52.132;21.048;2022-09-02T11:26:15;23.20;71.40
31769;DHT22;18342;52.132;21.048;2022-09-02T11:33:29;22.80;72.10
31769;DHT22;18342;52.132;21.048;2022-09-02T11:35:59;22.60;70.30
31769;DHT22;18342;52.132;21.048;2022-09-02T11:54:42;21.80;70.40
31769;DHT22;18342;52.132;21.048;2022-09-02T11:57:18;21.60;70.90
31769;DHT22;18342;52.132;21.048;2022-09-02T12:02:36;21.60;70.70
31769;DHT22;18342;52.132;21.048;2022-09-02T12:21:34;21.30;72.90
31769;DHT22;18342;52.132;21.048;2022-09-02T12:26:29;21.20;72.10
31769;DHT22;18342;52.132;21.048;2022-09-02T12:31:47;21.10;73.20
31769;DHT22;18342;52.132;21.048;2022-09-02T12:36:52;20.90;73.20
31769;DHT22;18342;52.132;21.048;2022-09-02T12:47:10;20.80;75.60
31769;DHT22;18342;52.132;21.048;2022-09-02T12:55:24;20.90;74.60
31769;DHT22;18342;52.132;21.048;2022-09-02T12:58:03;21.00;75.50
31769;DHT22;18342;52.132;21.048;2022-09-02T13:15:43;20.80;73.80
31769;DHT22;18342;52.132;21.048;2022-09-02T13:32:24;20.60;79.50
31769;DHT22;18342;52.132;21.048;2022-09-02T13:34:53;20.50;79.10
31769;DHT22;18342;52.132;21.048;2022-09-02T13:39:53;20.50;78.10
31769;DHT22;18342;52.132;21.048;2022-09-02T13:42:22;20.50;79.30
31769;DHT22;18342;52.132;21.048;2022-09-02T13:44:48;20.50;83.60
31769;DHT22;18342;52.132;21.048;2022-09-02T13:47:18;20.50;83.60
31769;DHT22;18342;52.132;21.048;2022-09-02T13:49:50;20.50;80.20
31769;DHT22;18342;52.132;21.048;2022-09-02T13:52:19;20.60;79.00
31769;DHT22;18342;52.132;21.048;2022-09-02T13:54:52;20.60;77.40
31769;DHT22;18342;52.132;21.048;2022-09-02T13:57:21;20.70;77.40
31769;DHT22;18342;52.132;21.048;2022-09-02T13:59:50;20.70;76.60
31769;DHT22;18342;52.132;21.048;2022-09-02T14:02:31;20.70;76.60
31769;DHT22;18342;52.132;21.048;2022-09-02T14:05:02;20.70;75.80
31769;DHT22;18342;52.132;21.048;2022-09-02T14:07:35;20.80;76.00
31769;DHT22;18342;52.132;21.048;2022-09-02T14:10:05;20.80;75.70
31769;DHT22;18342;52.132;21.048;2022-09-02T14:12:33;20.80;77.50
31769;DHT22;18342;52.132;21.048;2022-09-02T14:15:01;20.80;75.50
31769;DHT22;18342;52.132;21.048;2022-09-02T14:17:27;20.80;75.00
31769;DHT22;18342;52.132;21.048;2022-09-02T14:22:41;20.80;74.10
31769;DHT22;18342;52.132;21.048;2022-09-02T14:25:14;20.80;74.30
31769;DHT22;18342;52.132;21.048;2022-09-02T14:27:48;20.70;72.70
31769;DHT22;18342;52.132;21.048;2022-09-02T14:30:38;20.60;73.70
31769;DHT22;18342;52.132;21.048;2022-09-02T14:33:35;20.60;73.80
31769;DHT22;18342;52.132;21.048;2022-09-02T14:49:09;20.50;76.50
31769;DHT22;18342;52.132;21.048;2022-09-02T14:51:44;20.50;76.20
31769;DHT22;18342;52.132;21.048;2022-09-02T14:54:11;20.50;76.60
31769;DHT22;18342;52.132;21.048;2022-09-02T14:56:51;20.40;78.40
31769;DHT22;18342;52.132;21.048;2022-09-02T14:59:18;20.40;79.90
31769;DHT22;18342;52.132;21.048;2022-09-02T15:01:49;20.50;79.30
31769;DHT22;18342;52.132;21.048;2022-09-02T15:04:16;20.50;78.50
31769;DHT22;18342;52.132;21.048;2022-09-02T15:06:44;20.40;77.00
31769;DHT22;18342;52.132;21.048;2022-09-02T15:09:11;20.40;77.30
31769;DHT22;18342;52.132;21.048;2022-09-02T15:11:39;20.40;76.60
31769;DHT22;18342;52.132;21.048;2022-09-02T15:14:06;20.40;76.70
31769;DHT22;18342;52.132;21.048;2022-09-02T15:16:31;20.40;75.70
31769;DHT22;18342;52.132;21.048;2022-09-02T15:18:57;20.40;76.40
31769;DHT22;18342;52.132;21.048;2022-09-02T15:21:23;20.40;77.00
31769;DHT22;18342;52.132;21.048;2022-09-02T15:23:49;20.40;77.10
31769;DHT22;18342;52.132;21.048;2022-09-02T15:26:15;20.40;78.70
31769;DHT22;18342;52.132;21.048;2022-09-02T15:28:41;20.30;80.40
31769;DHT22;18342;52.132;21.048;2022-09-02T15:31:07;20.30;81.80
31769;DHT22;18342;52.132;21.048;2022-09-02T15:33:34;20.30;81.80
31769;DHT22;18342;52.132;21.048;2022-09-02T15:36:10;20.20;83.80
31769;DHT22;18342;52.132;21.048;2022-09-02T15:38:36;20.20;87.10
31769;DHT22;18342;52.132;21.048;2022-09-02T15:41:28;20.20;88.10
31769;DHT22;18342;52.132;21.048;2022-09-02T15:43:56;20.10;90.10
31769;DHT22;18342;52.132;21.048;2022-09-02T15:46:28;20.10;90.10
31769;DHT22;18342;52.132;21.048;2022-09-02T15:48:58;20.20;90.30
31769;DHT22;18342;52.132;21.048;2022-09-02T15:51:24;20.20;90.50
31769;DHT22;18342;52.132;21.048;2022-09-02T15:54:04;20.20;90.90
31769;DHT22;18342;52.132;21.048;2022-09-02T15:56:32;20.20;88.50
31769;DHT22;18342;52.132;21.048;2022-09-02T15:59:00;20.20;80.70
31769;DHT22;18342;52.132;21.048;2022-09-02T16:01:33;20.20;78.50
31769;DHT22;18342;52.132;21.048;2022-09-02T16:04:00;20.30;78.90
31769;DHT22;18342;52.132;21.048;2022-09-02T16:06:29;20.30;78.00
31769;DHT22;18342;52.132;21.048;2022-09-02T16:08:55;20.30;78.70
31769;DHT22;18342;52.132;21.048;2022-09-02T16:11:22;20.30;79.20
31769;DHT22;18342;52.132;21.048;2022-09-02T16:13:47;20.40;77.90
31769;DHT22;18342;52.132;21.048;2022-09-02T16:16:14;20.30;78.10
31769;DHT22;18342;52.132;21.048;2022-09-02T16:18:40;20.30;78.60
31769;DHT22;18342;52.132;21.048;2022-09-02T16:21:09;20.30;78.40
31769;DHT22;18342;52.132;21.048;2022-09-02T16:23:34;20.30;77.80
31769;DHT22;18342;52.132;21.048;2022-09-02T16:28:44;20.20;77.50
31769;DHT22;18342;52.132;21.048;2022-09-02T16:31:13;20.10;77.80
31769;DHT22;18342;52.132;21.048;2022-09-02T16:33:42;20.00;78.10
31769;DHT22;18342;52.132;21.048;2022-09-02T16:36:09;20.10;78.40
31769;DHT22;18342;52.132;21.048;2022-09-02T16:38:35;20.10;78.70
31769;DHT22;18342;52.132;21.048;2022-09-02T16:41:02;20.00;79.10
31769;DHT22;18342;52.132;21.048;2022-09-02T16:43:30;20.00;79.20
31769;DHT22;18342;52.132;21.048;2022-09-02T16:45:58;20.00;79.30
31769;DHT22;18342;52.132;21.048;2022-09-02T16:48:29;20.00;79.30
31769;DHT22;18342;52.132;21.048;2022-09-02T16:51:00;20.00;79.50
31769;DHT22;18342;52.132;21.048;2022-09-02T16:53:27;19.90;80.00
31769;DHT22;18342;52.132;21.048;2022-09-02T16:55:53;19.90;80.20
31769;DHT22;18342;52.132;21.048;2022-09-02T16:58:19;19.90;80.50
31769;DHT22;18342;52.132;21.048;2022-09-02T17:00:44;19.90;80.20
31769;DHT22;18342;52.132;21.048;2022-09-02T17:03:11;19.90;80.30
31769;DHT22;18342;52.132;21.048;2022-09-02T17:05:37;19.90;80.40
31769;DHT22;18342;52.132;21.048;2022-09-02T17:08:04;19.90;81.00
31769;DHT22;18342;52.132;21.048;2022-09-02T17:10:31;19.90;81.50
31769;DHT22;18342;52.132;21.048;2022-09-02T17:12:57;19.80;82.30
31769;DHT22;18342;52.132;21.048;2022-09-02T17:15:24;19.80;82.10
31769;DHT22;18342;52.132;21.048;2022-09-02T17:17:50;19.80;85.80
31769;DHT22;18342;52.132;21.048;2022-09-02T17:20:16;19.80;88.50
31769;DHT22;18342;52.132;21.048;2022-09-02T17:22:42;19.70;90.70
31769;DHT22;18342;52.132;21.048;2022-09-02T17:25:09;19.60;91.50
31769;DHT22;18342;52.132;21.048;2022-09-02T17:27:35;19.60;92.30
31769;DHT22;18342;52.132;21.048;2022-09-02T17:30:06;19.50;92.70
31769;DHT22;18342;52.132;21.048;2022-09-02T17:32:32;19.40;92.70
31769;DHT22;18342;52.132;21.048;2022-09-02T17:34:58;19.30;92.80
31769;DHT22;18342;52.132;21.048;2022-09-02T17:37:24;19.20;93.00
31769;DHT22;18342;52.132;21.048;2022-09-02T17:39:51;19.20;93.30
31769;DHT22;18342;52.132;21.048;2022-09-02T17:42:17;19.10;93.80
31769;DHT22;18342;52.132;21.048;2022-09-02T17:44:43;19.00;93.70
31769;DHT22;18342;52.132;21.048;2022-09-02T17:47:14;19.00;93.90
31769;DHT22;18342;52.132;21.048;2022-09-02T17:49:40;18.90;94.20
31769;DHT22;18342;52.132;21.048;2022-09-02T17:52:09;18.90;94.30
31769;DHT22;18342;52.132;21.048;2022-09-02T17:54:36;18.80;94.30
31769;DHT22;18342;52.132;21.048;2022-09-02T18:08:05;18.50;95.30
31769;DHT22;18342;52.132;21.048;2022-09-02T18:10:48;18.40;95.10
31769;DHT22;18342;52.132;21.048;2022-09-02T18:13:22;18.30;95.20
31769;DHT22;18342;52.132;21.048;2022-09-02T18:18:36;18.20;95.60
31769;DHT22;18342;52.132;21.048;2022-09-02T18:21:18;18.10;95.60